createdAt,value
2022-10-11T00:02:05.686Z,2.20
2022-10-11T00:07:07.168Z,3.25
2022-10-11T00:12:08.574Z,2.53
2022-10-11T00:17:10.058Z,2.38
2022-10-11T00:22:11.487Z,2.05
2022-10-11T00:27:12.877Z,2.85
2022-10-11T00:32:14.336Z,2.60
2022-10-11T00:37:15.818Z,2.35
2022-10-11T00:42:17.837Z,2.63
2022-10-11T00:47:24.447Z,2.22
2022-10-11T00:52:31.805Z,2.38
2022-10-11T00:57:36.958Z,2.25
2022-10-11T01:02:39.695Z,2.10
2022-10-11T01:07:42.388Z,2.97
2022-10-11T01:13:12.888Z,2.10
2022-10-11T01:18:28.122Z,2.30
2022-10-11T01:23:53.321Z,2.65
2022-10-11T01:29:30.064Z,2.10
2022-10-11T01:34:56.851Z,2.37
2022-10-11T01:40:07.962Z,2.28
2022-10-11T01:45:14.778Z,2.33
2022-10-11T01:50:40.701Z,1.98
2022-10-11T01:55:58.040Z,2.05
2022-10-11T02:01:38.543Z,2.35
2022-10-11T02:07:09.835Z,2.33
2022-10-11T02:12:16.578Z,2.45
2022-10-11T02:17:22.689Z,2.05
2022-10-11T02:22:36.087Z,2.13
2022-10-11T02:27:40.616Z,1.63
2022-10-11T02:32:44.510Z,2.50
2022-10-11T02:38:15.681Z,2.15
2022-10-11T02:43:24.348Z,2.10
2022-10-11T02:48:29.202Z,2.42
2022-10-11T02:53:31.161Z,2.88
2022-10-11T02:58:32.580Z,2.55
2022-10-11T03:03:34.021Z,2.65
2022-10-11T03:08:35.490Z,2.60
2022-10-11T03:13:36.997Z,3.28
2022-10-11T03:18:38.411Z,2.60
2022-10-11T03:23:40.154Z,2.40
2022-10-11T03:28:41.700Z,2.60
2022-10-11T03:33:58.780Z,3.65
2022-10-11T03:39:00.948Z,3.78
2022-10-11T03:44:02.394Z,3.10
2022-10-11T03:49:03.817Z,3.72
2022-10-11T03:54:05.295Z,3.63
2022-10-11T03:59:06.835Z,3.95
2022-10-11T04:04:08.289Z,3.13
2022-10-11T04:09:09.680Z,4.15
2022-10-11T04:14:11.088Z,2.72
2022-10-11T04:19:12.575Z,2.95
2022-10-11T04:24:13.989Z,3.22
2022-10-11T04:29:15.471Z,2.75
2022-10-11T04:34:17.466Z,2.80
2022-10-11T04:39:18.918Z,2.42
2022-10-11T04:44:20.356Z,2.45
2022-10-11T04:49:22.389Z,3.80
2022-10-11T04:54:24.006Z,3.45
2022-10-11T04:59:26.665Z,4.57
2022-10-11T05:04:28.231Z,4.70
2022-10-11T05:09:29.670Z,3.40
2022-10-11T05:14:31.169Z,4.03
2022-10-11T05:19:32.567Z,3.95
2022-10-11T05:24:36.698Z,3.80
2022-10-11T05:29:38.176Z,4.05
2022-10-11T05:34:39.560Z,3.75
2022-10-11T05:39:41.013Z,3.78
2022-10-11T05:44:42.453Z,2.83
2022-10-11T05:49:43.940Z,3.03
2022-10-11T05:54:48.182Z,3.17
2022-10-11T05:59:50.081Z,2.67
2022-10-11T06:04:51.557Z,3.28
2022-10-11T06:09:53.047Z,2.80
2022-10-11T06:14:54.491Z,3.08
2022-10-11T06:19:57.172Z,3.03
2022-10-11T06:24:58.751Z,3.65
2022-10-11T06:30:03.151Z,2.97
2022-10-11T06:35:06.672Z,2.80
2022-10-11T06:40:08.532Z,2.80
2022-10-11T06:45:10.234Z,2.83
2022-10-11T06:50:11.732Z,4.53
2022-10-11T06:55:13.219Z,3.63
2022-10-11T07:00:15.267Z,4.20
2022-10-11T07:05:17.628Z,4.93
2022-10-11T07:10:19.112Z,4.93
2022-10-11T07:15:20.635Z,5.30
2022-10-11T07:20:22.119Z,5.60
2022-10-11T07:25:23.896Z,7.25
2022-10-11T07:30:25.344Z,6.95
2022-10-11T07:35:26.833Z,7.47
2022-10-11T07:40:28.306Z,8.65
2022-10-11T07:45:29.815Z,10.05
2022-10-11T07:50:32.594Z,11.13
2022-10-11T07:55:40.216Z,11.07
2022-10-11T08:00:43.095Z,11.60
2022-10-11T08:05:44.558Z,11.18
2022-10-11T08:10:46.028Z,12.45
2022-10-11T08:15:47.448Z,13.77
2022-10-11T08:20:48.967Z,12.93
2022-10-11T08:25:56.530Z,14.07
2022-10-11T08:30:58.124Z,15.60
2022-10-11T08:36:05.069Z,13.90
2022-10-11T08:41:26.029Z,14.93
2022-10-11T08:46:32.215Z,16.92
2022-10-11T08:51:43.611Z,15.02
2022-10-11T08:56:46.002Z,11.90
2022-10-11T09:01:54.369Z,12.43
2022-10-11T09:07:26.392Z,11.13
2022-10-11T09:13:11.871Z,11.48
2022-10-11T09:18:16.100Z,12.88
2022-10-11T09:23:34.662Z,11.90
2022-10-11T09:29:13.707Z,10.52
2022-10-11T09:34:34.736Z,8.63
2022-10-11T09:39:51.086Z,7.07
2022-10-11T09:44:52.792Z,8.27
2022-10-11T09:50:09.211Z,6.45
2022-10-11T09:55:30.295Z,7.00
2022-10-11T10:00:34.982Z,6.75
2022-10-11T10:05:38.463Z,4.95
2022-10-11T10:11:08.093Z,5.07
2022-10-11T10:16:35.296Z,5.53
2022-10-11T10:27:05.209Z,3.78
2022-10-11T10:32:28.282Z,3.67
2022-10-11T10:37:40.548Z,3.13
2022-10-11T10:42:42.691Z,4.10
2022-10-11T10:48:46.923Z,3.63
2022-10-11T10:54:33.231Z,2.63
2022-10-11T10:59:51.313Z,3.30
2022-10-11T11:05:30.397Z,2.85
2022-10-11T11:10:52.450Z,2.13
2022-10-11T11:16:26.282Z,1.67
2022-10-11T11:22:14.768Z,2.90
2022-10-11T11:27:40.732Z,1.75
2022-10-11T11:39:11.009Z,2.65
2022-10-11T11:49:35.603Z,2.53
2022-10-11T11:54:43.730Z,1.27
2022-10-11T12:00:09.363Z,2.83
2022-10-11T12:05:17.311Z,1.97
2022-10-11T12:10:55.673Z,2.20
2022-10-11T12:16:05.996Z,1.45
2022-10-11T12:21:20.278Z,1.95
2022-10-11T12:26:33.779Z,2.03
2022-10-11T12:31:38.047Z,1.98
2022-10-11T12:36:44.909Z,2.15
2022-10-11T12:41:53.850Z,2.10
2022-10-11T12:47:31.954Z,2.03
2022-10-11T12:52:43.297Z,2.08
2022-10-11T12:58:25.373Z,2.80
2022-10-11T13:03:49.501Z,1.92
2022-10-11T13:09:02.651Z,2.03
2022-10-11T13:14:14.014Z,1.67
2022-10-11T13:19:21.727Z,1.52
2022-10-11T13:24:24.910Z,2.55
2022-10-11T13:29:37.163Z,2.55
2022-10-11T13:34:41.003Z,2.25
2022-10-11T13:39:42.942Z,1.65
2022-10-11T13:44:46.474Z,1.67
2022-10-11T13:55:51.178Z,1.30
2022-10-11T14:01:00.153Z,3.00
2022-10-11T14:06:05.369Z,1.77
2022-10-11T14:11:08.336Z,1.80
2022-10-11T14:16:28.907Z,1.80
2022-10-11T14:21:36.803Z,1.45
2022-10-11T14:26:41.191Z,2.38
2022-10-11T14:31:43.201Z,1.52
2022-10-11T14:36:44.666Z,2.08
2022-10-11T14:41:47.225Z,1.48
2022-10-11T14:46:50.519Z,2.10
2022-10-11T14:51:54.640Z,2.05
2022-10-11T14:57:01.899Z,2.72
2022-10-11T15:02:05.344Z,1.92
2022-10-11T15:07:07.878Z,1.48
2022-10-11T15:12:09.296Z,2.30
2022-10-11T15:17:12.537Z,1.75
2022-10-11T15:22:14.020Z,2.20
2022-10-11T15:27:17.284Z,1.98
2022-10-11T15:32:19.819Z,2.20
2022-10-11T15:37:21.613Z,1.63
2022-10-11T15:42:23.110Z,1.83
2022-10-11T15:47:24.592Z,2.35
2022-10-11T15:52:26.377Z,2.58
2022-10-11T15:57:27.946Z,2.47
2022-10-11T16:02:31.277Z,1.73
2022-10-11T16:07:32.711Z,2.42
2022-10-11T16:12:37.155Z,1.90
2022-10-11T16:17:41.407Z,2.15
2022-10-11T16:22:44.747Z,1.70
2022-10-11T16:27:46.491Z,1.60
2022-10-11T16:32:48.322Z,1.48
2022-10-11T16:37:49.939Z,2.15
2022-10-11T16:42:51.429Z,2.15
2022-10-11T16:47:52.925Z,1.25
2022-10-11T16:52:57.568Z,2.00
2022-10-11T16:57:59.061Z,1.52
2022-10-11T17:03:03.560Z,4.57
2022-10-11T17:08:04.993Z,1.67
2022-10-11T17:13:09.621Z,2.33
2022-10-11T17:18:11.199Z,2.17
2022-10-11T17:23:13.170Z,1.90
2022-10-11T17:28:20.587Z,2.00
2022-10-11T17:33:26.318Z,1.90
2022-10-11T17:38:30.693Z,1.93
2022-10-11T17:43:37.408Z,1.48
2022-10-11T17:48:39.412Z,1.85
2022-10-11T17:53:41.523Z,3.08
2022-10-11T17:58:43.660Z,8.05
2022-10-11T18:03:53.705Z,2.90
2022-10-11T18:08:57.533Z,2.10
2022-10-11T18:14:06.705Z,2.85
2022-10-11T18:19:11.491Z,2.60
2022-10-11T18:24:51.975Z,2.47
2022-10-11T18:35:18.931Z,2.15
2022-10-11T18:40:29.086Z,2.23
2022-10-11T18:45:41.940Z,2.30
2022-10-11T18:50:51.985Z,2.75
2022-10-11T18:56:17.190Z,1.92
2022-10-11T19:01:59.091Z,1.90
2022-10-11T19:07:05.282Z,2.30
2022-10-11T19:12:12.266Z,1.58
2022-10-11T19:17:19.612Z,1.80
2022-10-11T19:22:42.045Z,5.45
2022-10-11T19:28:05.447Z,2.25
2022-10-11T19:33:16.935Z,2.35
2022-10-11T19:38:30.880Z,1.77
2022-10-11T19:43:45.807Z,2.83
2022-10-11T19:48:52.306Z,2.65
2022-10-11T19:54:04.984Z,2.42
2022-10-11T19:59:11.976Z,1.80
2022-10-11T20:10:15.737Z,1.77
2022-10-11T20:15:30.594Z,2.03
2022-10-11T20:20:34.655Z,2.45
2022-10-11T20:26:12.342Z,2.67
2022-10-11T20:31:31.080Z,3.53
2022-10-11T20:36:49.276Z,1.95
2022-10-11T20:52:50.637Z,2.40
2022-10-11T20:57:59.898Z,4.30
2022-10-11T21:03:25.244Z,2.17
2022-10-11T21:08:30.762Z,2.15
2022-10-11T21:13:40.571Z,2.65
2022-10-11T21:18:48.663Z,2.30
2022-10-11T21:24:10.033Z,1.98
2022-10-11T21:34:34.441Z,2.53
2022-10-11T21:39:52.736Z,2.05
2022-10-11T21:44:56.231Z,2.33
2022-10-11T21:50:13.891Z,1.95
2022-10-11T21:55:25.250Z,2.63
2022-10-11T22:00:30.777Z,2.25
2022-10-11T22:05:51.174Z,2.60
2022-10-11T22:11:00.844Z,1.80
2022-10-11T22:21:44.724Z,2.40
2022-10-11T22:26:53.342Z,2.25
2022-10-11T22:32:07.905Z,1.55
2022-10-11T22:37:15.517Z,2.45
2022-10-11T22:42:29.685Z,2.28
2022-10-11T22:47:41.708Z,2.13
2022-10-11T22:52:46.441Z,2.33
2022-10-11T22:57:53.298Z,2.45
2022-10-11T23:03:05.262Z,2.67
2022-10-11T23:08:12.698Z,2.38
2022-10-11T23:13:17.472Z,2.38
2022-10-11T23:18:32.083Z,1.85
2022-10-11T23:23:39.952Z,2.00
2022-10-11T23:28:43.916Z,1.90
2022-10-11T23:33:49.365Z,1.98
2022-10-11T23:39:00.529Z,2.13
2022-10-11T23:44:08.255Z,2.85
2022-10-11T23:49:12.982Z,2.42
2022-10-11T23:54:19.549Z,3.45
2022-10-11T23:59:26.824Z,1.88
